Aeroporto :
LOGIN :

Iscrizione | Disclaimer

   EN    FR    IT 

 










Sommario :    VFR   VFR Marginale   IFR   IFR Intensivo   IFR Molto Intensivo
Visibilità : 
Base nubi : 
>= 8 km
>= 3000ft
5 / 8 km
1000 / 3000 ft
1500m / 5 km
500 / 1000 ft
800 / 1500m
200 / 500 ft
< 800m
< 200 ft
Simboli :   Temporali  Nebbia  Neve Forte  Precipitazioni Forti  Vento > 20 kt
SIGMETs :   Varie  Temporali  Ghiacco  Turbolenza  Onda orograficha  Ceneri Vulcaniche






- Altitudine del aeroporto : 405 ft
- Codice IATA : ODH


EGVO - RAF Odiham

ULTIMO METAR :
  • 280721Z 24014KT 9999 FEW012 01/00 Q0994 NOSIG RMK BLU BLU

METARs OBSOLETI :
  • 280650Z 24015KT CAVOK 02/00 Q0993 RMK BLU
  • 280550Z 24018KT CAVOK 02/01 Q0992 RMK BLU
  • 280450Z 24017KT 9999 FEW014 SCT140 03/01 Q0992 RMK BLU

TAF TAF EGVO
Valido dal 28 a 06 ore il 28 a 18 ore UTC


280437Z 2806/2818 24014KT 9999 SCT030
PROB30
TEMPO 2809/2816 27016G28KT 7000 -SHRASN SCT020CB



MetMap, La meteo Aeronautica in un colpo d'occhio ! - Copyright ORBIFLY Dicembre 2007 - Disclaimer

ORBIFLY MET'MAP TEAM :

Programmazione e sviluppo : Alexandra Zaïnal
Concezione : Baudouin d'Aumeries
Aiuto per la programmazione : Marc-Olivier Méhu
Supporto tecnico e logistico : Manuel Goepfert
Aiuto per la traduzione : Arnaldo La Scala

Contatto : metmap@orbifly.com




FONTI E CREDITI :

   NOAA